createdAt,value
2023-01-15T00:02:51.916Z,63.57
2023-01-15T00:06:55.527Z,63.85
2023-01-15T00:11:03.974Z,64.39
2023-01-15T00:15:08.217Z,63.94
2023-01-15T00:19:13.125Z,64.37
2023-01-15T00:23:36.226Z,65.73
2023-01-15T00:27:39.890Z,65.57
2023-01-15T00:31:43.684Z,65.30
2023-01-15T00:35:46.718Z,65.53
2023-01-15T00:39:50.146Z,65.50
2023-01-15T00:43:54.792Z,65.79
2023-01-15T00:47:57.854Z,65.90
2023-01-15T00:52:01.252Z,66.34
2023-01-15T00:56:04.211Z,66.35
2023-01-15T01:00:12.542Z,66.51
2023-01-15T01:04:15.916Z,66.26
2023-01-15T01:08:19.467Z,67.29
2023-01-15T01:12:23.798Z,67.01
2023-01-15T01:16:33.784Z,67.55
2023-01-15T01:20:39.405Z,67.32
2023-01-15T01:24:42.662Z,67.64
2023-01-15T01:28:50.643Z,68.01
2023-01-15T01:32:55.317Z,67.86
2023-01-15T01:36:59.785Z,67.76
2023-01-15T01:41:02.817Z,68.28
2023-01-15T01:45:13.235Z,67.68
2023-01-15T01:49:18.132Z,68.05
2023-01-15T01:53:24.586Z,68.10
2023-01-15T01:57:27.773Z,68.33
2023-01-15T02:01:31.286Z,68.46
2023-01-15T02:05:39.336Z,68.63
2023-01-15T02:09:42.751Z,68.95
2023-01-15T02:13:53.585Z,69.08
2023-01-15T02:18:02.428Z,68.76
2023-01-15T02:22:15.864Z,68.96
2023-01-15T02:26:41.757Z,68.99
2023-01-15T02:30:49.154Z,69.29
2023-01-15T02:34:58.111Z,69.62
2023-01-15T02:39:06.046Z,69.60
2023-01-15T02:43:12.931Z,69.03
2023-01-15T02:47:18.776Z,69.20
2023-01-15T02:51:26.114Z,69.72
2023-01-15T02:55:33.548Z,69.28
2023-01-15T02:59:41.256Z,69.54
2023-01-15T03:03:50.394Z,69.47
2023-01-15T03:07:56.231Z,69.49
2023-01-15T03:12:10.360Z,69.33
2023-01-15T03:16:39.362Z,69.55
2023-01-15T03:20:51.046Z,69.63
2023-01-15T03:24:58.119Z,69.65
2023-01-15T03:29:03.958Z,69.58
2023-01-15T03:33:11.629Z,69.41
2023-01-15T03:37:15.648Z,69.40
2023-01-15T03:41:26.077Z,69.70
2023-01-15T03:45:38.103Z,69.81
2023-01-15T03:50:01.012Z,69.32
2023-01-15T03:54:07.561Z,69.79
2023-01-15T03:58:15.548Z,68.97
2023-01-15T04:02:21.767Z,68.92
2023-01-15T04:06:28.201Z,68.85
2023-01-15T04:10:31.618Z,69.11
2023-01-15T04:14:35.952Z,68.69
2023-01-15T04:18:39.141Z,69.27
2023-01-15T04:22:43.479Z,68.95
2023-01-15T04:26:46.724Z,68.82
2023-01-15T04:30:52.760Z,68.68
2023-01-15T04:34:55.666Z,68.94
2023-01-15T04:39:00.394Z,68.41
2023-01-15T04:43:21.181Z,67.79
2023-01-15T04:47:24.255Z,68.47
2023-01-15T04:51:27.623Z,68.92
2023-01-15T04:55:33.291Z,67.44
2023-01-15T04:59:36.495Z,67.42
2023-01-15T05:03:39.904Z,67.59
2023-01-15T05:07:43.150Z,67.42
2023-01-15T05:11:47.917Z,67.03
2023-01-15T05:15:51.211Z,67.96
2023-01-15T05:19:54.160Z,67.36
2023-01-15T05:23:59.013Z,67.75
2023-01-15T05:28:07.109Z,67.64
2023-01-15T05:32:10.397Z,68.72
2023-01-15T05:36:15.149Z,68.47
2023-01-15T05:40:18.568Z,68.42
2023-01-15T05:44:25.747Z,68.05
2023-01-15T05:48:29.390Z,68.05
2023-01-15T05:52:32.689Z,68.18
2023-01-15T05:56:36.818Z,68.65
2023-01-15T06:00:41.284Z,68.65
2023-01-15T06:04:44.551Z,69.17
2023-01-15T06:08:47.623Z,69.18
2023-01-15T06:12:50.968Z,68.81
2023-01-15T06:16:55.450Z,68.78
2023-01-15T06:20:58.316Z,69.11
2023-01-15T06:25:01.484Z,68.93
2023-01-15T06:33:14.789Z,67.86
2023-01-15T06:37:17.905Z,68.49
2023-01-15T06:41:40.464Z,67.58
2023-01-15T06:46:01.085Z,68.06
2023-01-15T06:50:06.159Z,67.79
2023-01-15T06:54:09.319Z,68.12
2023-01-15T06:58:12.314Z,68.19
2023-01-15T07:02:15.514Z,68.31
2023-01-15T07:06:19.871Z,68.03
2023-01-15T07:10:23.108Z,68.08
2023-01-15T07:14:28.238Z,66.45
2023-01-15T07:18:33.930Z,67.66
2023-01-15T07:22:38.408Z,67.20
2023-01-15T07:26:42.331Z,67.29
2023-01-15T07:30:45.254Z,67.42
2023-01-15T07:34:48.548Z,67.30
2023-01-15T07:38:53.286Z,67.02
2023-01-15T07:43:14.285Z,67.13
2023-01-15T07:47:38.577Z,67.81
2023-01-15T07:51:41.445Z,66.86
2023-01-15T07:55:46.387Z,66.84
2023-01-15T07:59:49.412Z,67.83
2023-01-15T08:03:52.469Z,67.01
2023-01-15T08:07:55.886Z,67.26
2023-01-15T08:12:20.090Z,66.75
2023-01-15T08:16:23.225Z,66.04
2023-01-15T08:20:28.384Z,66.62
2023-01-15T08:24:31.334Z,66.74
2023-01-15T08:28:35.812Z,65.97
2023-01-15T08:32:39.182Z,66.98
2023-01-15T08:36:42.274Z,66.12
2023-01-15T08:45:15.276Z,65.96
2023-01-15T08:49:18.462Z,64.16
2023-01-15T08:53:22.108Z,64.26
2023-01-15T08:57:25.307Z,63.99
2023-01-15T09:01:29.925Z,63.84
2023-01-15T09:05:33.085Z,63.86
2023-01-15T09:09:36.021Z,62.95
2023-01-15T09:13:39.638Z,63.22
2023-01-15T09:17:44.587Z,63.67
2023-01-15T09:21:47.953Z,63.86
2023-01-15T09:25:55.184Z,63.42
2023-01-15T09:29:58.389Z,63.41
2023-01-15T09:34:03.077Z,62.49
2023-01-15T09:38:06.373Z,61.91
2023-01-15T09:42:25.412Z,60.45
2023-01-15T09:46:37.928Z,61.82
2023-01-15T09:50:57.051Z,62.11
2023-01-15T09:55:06.724Z,61.00
2023-01-15T09:59:22.092Z,61.44
2023-01-15T10:03:36.113Z,61.01
2023-01-15T10:07:51.029Z,61.50
2023-01-15T10:12:17.272Z,61.58
2023-01-15T10:16:24.046Z,61.04
2023-01-15T10:20:51.183Z,62.09
2023-01-15T10:24:59.081Z,60.78
2023-01-15T10:29:04.842Z,59.88
2023-01-15T10:33:23.124Z,60.21
2023-01-15T10:37:31.173Z,60.58
2023-01-15T10:41:51.033Z,61.06
2023-01-15T10:45:58.382Z,60.03
2023-01-15T10:50:02.790Z,60.69
2023-01-15T10:54:13.270Z,61.16
2023-01-15T10:58:35.081Z,62.70
2023-01-15T11:02:41.595Z,60.86
2023-01-15T11:06:44.872Z,60.67
2023-01-15T11:10:47.930Z,60.90
2023-01-15T11:15:10.217Z,60.79
2023-01-15T11:19:39.927Z,61.34
2023-01-15T11:23:43.505Z,59.20
2023-01-15T11:27:51.242Z,60.67
2023-01-15T11:31:55.843Z,60.51
2023-01-15T11:36:00.749Z,61.33
2023-01-15T11:40:06.165Z,62.24
2023-01-15T11:44:30.152Z,61.58
2023-01-15T11:49:02.301Z,62.31
2023-01-15T11:53:05.916Z,62.37
2023-01-15T11:57:09.659Z,62.33
2023-01-15T12:01:15.935Z,62.51
2023-01-15T12:05:22.539Z,63.47
2023-01-15T12:09:36.293Z,63.90
2023-01-15T12:13:48.913Z,63.53
2023-01-15T12:18:27.044Z,64.13
2023-01-15T12:22:56.049Z,64.80
2023-01-15T12:27:13.426Z,64.53
2023-01-15T12:31:21.187Z,64.38
2023-01-15T12:35:30.127Z,65.71
2023-01-15T12:39:42.636Z,66.09
2023-01-15T12:44:08.715Z,67.03
2023-01-15T12:48:21.220Z,67.34
2023-01-15T12:52:28.170Z,67.25
2023-01-15T12:56:44.735Z,67.69
2023-01-15T13:00:50.702Z,67.50
2023-01-15T13:04:59.667Z,67.85
2023-01-15T13:09:07.552Z,68.01
2023-01-15T13:13:18.460Z,67.85
2023-01-15T13:17:32.040Z,68.28
2023-01-15T13:21:38.513Z,68.56
2023-01-15T13:25:56.840Z,68.65
2023-01-15T13:30:16.744Z,68.90
2023-01-15T13:34:28.128Z,69.20
2023-01-15T13:38:34.009Z,70.51
2023-01-15T13:42:40.797Z,71.44
2023-01-15T13:46:46.899Z,71.74
2023-01-15T13:50:55.159Z,72.31
2023-01-15T13:55:01.412Z,72.92
2023-01-15T13:59:28.829Z,72.84
2023-01-15T14:03:40.340Z,72.87
2023-01-15T14:07:43.635Z,73.17
2023-01-15T14:12:04.604Z,73.10
2023-01-15T14:16:16.637Z,73.35
2023-01-15T14:20:38.327Z,73.21
2023-01-15T14:25:17.363Z,72.82
2023-01-15T14:29:43.853Z,71.76
2023-01-15T14:34:00.201Z,70.35
2023-01-15T14:38:09.270Z,70.06
2023-01-15T14:42:35.857Z,69.79
2023-01-15T14:46:42.231Z,69.73
2023-01-15T14:50:45.440Z,70.18
2023-01-15T14:54:50.592Z,70.61
2023-01-15T14:58:59.915Z,70.51
2023-01-15T15:03:04.895Z,70.83
2023-01-15T15:07:13.479Z,70.69
2023-01-15T15:11:43.553Z,70.88
2023-01-15T15:15:53.288Z,70.93
2023-01-15T15:20:08.897Z,71.13
2023-01-15T15:24:18.644Z,71.54
2023-01-15T15:28:23.267Z,71.62
2023-01-15T15:32:27.091Z,70.97
2023-01-15T15:36:33.984Z,70.82
2023-01-15T15:40:38.605Z,70.73
2023-01-15T15:45:08.752Z,71.21
2023-01-15T15:49:13.110Z,71.51
2023-01-15T15:53:18.747Z,71.64
2023-01-15T15:57:22.099Z,71.59
2023-01-15T16:01:26.982Z,71.10
2023-01-15T16:05:32.208Z,70.88
2023-01-15T16:09:35.463Z,71.25
2023-01-15T16:13:44.342Z,70.53
2023-01-15T16:17:50.309Z,71.39
2023-01-15T16:21:54.637Z,70.94
2023-01-15T16:26:02.815Z,71.34
2023-01-15T16:30:06.945Z,71.67
2023-01-15T16:34:19.471Z,70.76
2023-01-15T16:38:23.041Z,69.67
2023-01-15T16:42:29.102Z,70.09
2023-01-15T16:46:34.362Z,71.11
2023-01-15T16:50:40.007Z,71.39
2023-01-15T16:54:47.816Z,71.68
2023-01-15T16:58:50.841Z,71.49
2023-01-15T17:02:55.155Z,72.07
2023-01-15T17:07:08.331Z,72.32
2023-01-15T17:11:22.457Z,72.19
2023-01-15T17:15:37.488Z,72.58
2023-01-15T17:19:40.580Z,72.50
2023-01-15T17:23:46.775Z,72.62
2023-01-15T17:27:49.710Z,72.97
2023-01-15T17:31:53.211Z,72.79
2023-01-15T17:35:58.491Z,73.00
2023-01-15T17:40:03.533Z,72.71
2023-01-15T17:44:07.521Z,73.10
2023-01-15T17:48:11.073Z,73.14
2023-01-15T17:52:20.842Z,72.31
2023-01-15T17:56:42.514Z,72.04
2023-01-15T18:01:03.789Z,72.25
2023-01-15T18:05:30.996Z,72.02
2023-01-15T18:09:36.331Z,71.99
2023-01-15T18:13:42.227Z,72.32
2023-01-15T18:17:45.772Z,72.04
2023-01-15T18:21:51.884Z,71.42
2023-01-15T18:25:55.406Z,71.82
2023-01-15T18:34:05.346Z,71.53
2023-01-15T18:38:08.545Z,72.01
2023-01-15T18:42:29.616Z,71.54
2023-01-15T18:46:44.787Z,72.04
2023-01-15T18:50:50.877Z,72.18
2023-01-15T18:54:54.763Z,72.01
2023-01-15T18:58:58.460Z,72.34
2023-01-15T19:03:03.569Z,72.84
2023-01-15T19:07:10.530Z,72.50
2023-01-15T19:11:14.687Z,72.61
2023-01-15T19:15:37.926Z,72.47
2023-01-15T19:19:43.392Z,71.28
2023-01-15T19:23:48.070Z,72.04
2023-01-15T19:27:51.489Z,72.50
2023-01-15T19:31:54.452Z,72.24
2023-01-15T19:36:00.172Z,71.52
2023-01-15T19:40:04.938Z,70.88
2023-01-15T19:44:40.135Z,70.87
2023-01-15T19:49:00.824Z,71.38
2023-01-15T19:53:06.234Z,71.23
2023-01-15T19:57:10.890Z,70.49
2023-01-15T20:01:17.718Z,71.19
2023-01-15T20:05:21.934Z,70.67
2023-01-15T20:09:26.372Z,70.50
2023-01-15T20:13:48.172Z,70.42
2023-01-15T20:17:53.449Z,70.91
2023-01-15T20:21:56.723Z,70.81
2023-01-15T20:26:05.358Z,70.29
2023-01-15T20:30:13.464Z,70.71
2023-01-15T20:34:17.807Z,70.50
2023-01-15T20:38:22.325Z,70.53
2023-01-15T20:42:42.668Z,70.65
2023-01-15T20:46:47.691Z,70.88
2023-01-15T20:51:01.950Z,70.28
2023-01-15T20:55:05.194Z,70.27
2023-01-15T20:59:08.656Z,69.90
2023-01-15T21:03:13.575Z,69.77
2023-01-15T21:07:17.090Z,69.89
2023-01-15T21:11:22.242Z,69.41
2023-01-15T21:15:26.562Z,68.74
2023-01-15T21:19:31.783Z,69.16
2023-01-15T21:23:37.694Z,69.38
2023-01-15T21:27:41.204Z,68.70
2023-01-15T21:31:45.491Z,68.24
2023-01-15T21:35:50.047Z,68.90
2023-01-15T21:39:53.705Z,68.36
2023-01-15T21:44:14.168Z,67.59
2023-01-15T21:48:18.450Z,68.27
2023-01-15T21:52:24.011Z,68.03
2023-01-15T21:56:27.170Z,67.42
2023-01-15T22:00:30.379Z,67.06
2023-01-15T22:04:36.884Z,67.69
2023-01-15T22:08:41.436Z,67.22
2023-01-15T22:12:44.308Z,67.05
2023-01-15T22:16:48.304Z,66.92
2023-01-15T22:20:57.954Z,67.45
2023-01-15T22:25:02.932Z,67.56
2023-01-15T22:29:05.840Z,67.61
2023-01-15T22:33:09.042Z,66.99
2023-01-15T22:37:14.415Z,67.94
2023-01-15T22:41:39.864Z,68.00
2023-01-15T22:45:42.873Z,68.07
2023-01-15T22:49:46.398Z,68.35
2023-01-15T22:53:49.964Z,68.99
2023-01-15T22:57:54.554Z,68.09
2023-01-15T23:01:57.507Z,68.62
2023-01-15T23:06:06.234Z,68.53
2023-01-15T23:10:11.732Z,68.70
2023-01-15T23:14:17.145Z,69.00
2023-01-15T23:18:20.133Z,67.75
2023-01-15T23:22:23.279Z,67.49
2023-01-15T23:26:28.643Z,66.82
2023-01-15T23:30:33.180Z,67.05
2023-01-15T23:34:36.571Z,66.56
2023-01-15T23:38:40.097Z,67.08
2023-01-15T23:43:00.652Z,65.68
2023-01-15T23:47:05.110Z,66.70
2023-01-15T23:51:08.496Z,66.85
2023-01-15T23:55:11.750Z,65.97
2023-01-15T23:59:15.027Z,65.87
